Time;durP1;ratioP1;P1;durP2;ratioP2;P2;SDS_P1;SDS_P2;PMS_P1;PMS_P2;Temp;Humidity;BMP_temperature;BMP_pressure;BME280_temperature;BME280_humidity;BME280_pressure;Samples;Min_cycle;Max_cycle;Signal;HPM_P1;HPM_P2
2022/08/10 00:01:25;;;;;;;6.45;3.30;;;17.50;99.90;;;;;;5039818;28;20396;-63
2022/08/10 00:03:50;;;;;;;5.57;3.67;;;17.40;99.90;;;;;;5041194;28;20049;-62
2022/08/10 00:06:16;;;;;;;5.18;3.25;;;17.40;99.90;;;;;;5035854;28;20054;-62
2022/08/10 00:08:42;;;;;;;7.65;3.65;;;17.30;99.90;;;;;;5042325;28;20408;-62
2022/08/10 00:11:08;;;;;;;4.22;2.85;;;17.40;99.90;;;;;;5031040;28;20556;-62
2022/08/10 00:13:34;;;;;;;4.72;3.63;;;17.30;99.90;;;;;;5042812;28;20037;-62
2022/08/10 00:15:59;;;;;;;5.20;3.40;;;17.30;99.90;;;;;;5045827;28;20055;-62
2022/08/10 00:18:26;;;;;;;4.82;3.53;;;17.20;99.90;;;;;;5045663;28;20090;-62
2022/08/10 00:20:52;;;;;;;5.90;3.45;;;17.20;99.90;;;;;;5044665;28;20079;-63
2022/08/10 00:23:17;;;;;;;4.88;3.42;;;17.20;99.90;;;;;;5036689;28;20139;-63
2022/08/10 00:25:43;;;;;;;5.93;3.72;;;17.20;99.90;;;;;;5044869;28;20079;-62
2022/08/10 00:28:09;;;;;;;5.07;3.70;;;17.20;99.90;;;;;;5038050;28;20167;-62
2022/08/10 00:30:34;;;;;;;5.45;3.42;;;17.20;99.90;;;;;;5044651;28;20116;-63
2022/08/10 00:33:00;;;;;;;5.72;3.78;;;17.10;99.90;;;;;;5036409;28;20029;-63
2022/08/10 00:35:26;;;;;;;7.32;4.10;;;17.10;99.90;;;;;;5041550;28;20139;-63
2022/08/10 00:37:52;;;;;;;5.38;3.60;;;17.10;99.90;;;;;;5038907;28;20719;-63
2022/08/10 00:40:17;;;;;;;4.75;3.47;;;17.00;99.90;;;;;;5046785;28;20064;-63
2022/08/10 00:42:43;;;;;;;5.43;3.90;;;17.10;99.90;;;;;;5042806;28;20511;-63
2022/08/10 00:45:09;;;;;;;4.40;3.60;;;17.00;99.90;;;;;;5047255;28;20060;-63
2022/08/10 00:47:34;;;;;;;5.50;4.07;;;17.00;99.90;;;;;;5046080;28;20075;-62
2022/08/10 00:50:00;;;;;;;5.40;3.90;;;16.90;99.90;;;;;;5037026;28;20041;-64
2022/08/10 00:52:28;;;;;;;7.50;4.20;;;16.90;99.90;;;;;;5039701;28;20048;-63
2022/08/10 00:54:54;;;;;;;4.90;3.75;;;16.90;99.90;;;;;;5040173;28;20048;-63
2022/08/10 00:57:20;;;;;;;6.07;4.22;;;16.90;99.90;;;;;;5042112;28;20044;-63
2022/08/10 00:59:47;;;;;;;5.47;4.10;;;16.80;99.90;;;;;;5046124;28;20045;-63
2022/08/10 01:02:13;;;;;;;5.50;4.18;;;16.80;99.90;;;;;;5042912;28;20072;-63
2022/08/10 01:04:39;;;;;;;5.95;4.05;;;16.80;99.90;;;;;;5042992;28;20057;-63
2022/08/10 01:07:20;;;;;;;5.38;4.15;;;16.80;99.90;;;;;;5035860;28;20428;-63
2022/08/10 01:10:08;;;;;;;5.40;3.97;;;16.80;99.90;;;;;;5043504;28;20037;-63
2022/08/10 01:12:44;;;;;;;6.85;4.50;;;16.70;99.90;;;;;;5045889;28;20136;-63
2022/08/10 01:15:10;;;;;;;7.13;4.50;;;16.70;99.90;;;;;;5050687;28;20095;-63
2022/08/10 01:17:48;;;;;;;7.68;4.63;;;16.70;99.90;;;;;;5050110;28;20068;-63
2022/08/10 01:20:52;;;;;;;6.18;4.57;;;16.70;99.90;;;;;;5046635;28;20045;-63
2022/08/10 01:23:35;;;;;;;6.20;4.80;;;16.60;99.90;;;;;;5042089;28;20053;-63
2022/08/10 01:26:17;;;;;;;7.53;4.88;;;16.60;99.90;;;;;;5042650;28;20056;-63
2022/08/10 01:29:02;;;;;;;7.05;5.15;;;16.60;99.90;;;;;;5035304;28;20406;-63
2022/08/10 01:31:41;;;;;;;7.18;5.15;;;16.50;99.90;;;;;;5047075;28;20089;-63
2022/08/10 01:34:13;;;;;;;5.97;5.05;;;16.50;99.90;;;;;;5043039;28;20079;-63
2022/08/10 01:36:52;;;;;;;6.55;5.22;;;16.50;99.90;;;;;;5044508;28;20077;-62
2022/08/10 01:39:27;;;;;;;6.35;4.78;;;16.50;99.90;;;;;;5045908;28;20513;-62
2022/08/10 01:41:57;;;;;;;10.98;5.20;;;16.40;99.90;;;;;;5045928;28;20041;-63
2022/08/10 01:44:34;;;;;;;8.10;5.80;;;16.40;99.90;;;;;;5041187;28;20481;-62
2022/08/10 01:50:08;;;;;;;8.40;6.60;;;16.40;99.90;;;;;;5041963;28;20065;-63
2022/08/10 01:52:39;;;;;;;8.05;6.38;;;16.30;99.90;;;;;;5037941;28;20060;-63
2022/08/10 01:55:05;;;;;;;8.10;6.47;;;16.30;99.90;;;;;;5037189;28;20057;-63
2022/08/10 01:57:32;;;;;;;7.07;6.00;;;16.30;99.90;;;;;;5037822;28;20064;-62
2022/08/10 02:00:00;;;;;;;8.30;6.30;;;16.20;99.90;;;;;;5018660;28;20512;-63
2022/08/10 02:02:29;;;;;;;7.88;6.32;;;16.20;99.90;;;;;;5047828;28;20144;-63
2022/08/10 02:04:55;;;;;;;8.50;6.20;;;16.10;99.90;;;;;;5045407;28;20041;-62
2022/08/10 02:07:26;;;;;;;9.23;6.53;;;16.10;99.90;;;;;;5046620;28;20037;-63
2022/08/10 02:09:53;;;;;;;8.98;6.30;;;16.10;99.90;;;;;;5048081;28;20040;-62
2022/08/10 02:12:22;;;;;;;7.78;6.32;;;16.10;99.90;;;;;;5035809;28;20033;-63
2022/08/10 02:14:53;;;;;;;8.23;6.60;;;16.00;99.90;;;;;;5049303;28;20045;-63
2022/08/10 02:17:24;;;;;;;8.30;6.63;;;16.10;99.90;;;;;;5038395;28;20037;-62
2022/08/10 02:19:53;;;;;;;9.85;6.50;;;16.10;99.90;;;;;;5048496;28;20041;-62
2022/08/10 02:22:20;;;;;;;8.23;6.30;;;16.00;99.90;;;;;;5042833;28;20045;-63
2022/08/10 02:24:47;;;;;;;9.70;6.22;;;16.00;99.90;;;;;;5046345;28;20041;-63
2022/08/10 02:27:14;;;;;;;8.23;6.30;;;16.00;99.90;;;;;;5049581;28;20072;-63
2022/08/10 02:29:42;;;;;;;9.75;6.45;;;16.00;99.90;;;;;;5040632;28;20037;-63
2022/08/10 02:32:09;;;;;;;8.18;6.32;;;16.00;99.90;;;;;;5046338;28;20159;-62
2022/08/10 02:34:38;;;;;;;8.23;6.40;;;16.00;99.90;;;;;;5044197;28;20059;-62
2022/08/10 02:37:05;;;;;;;8.23;6.47;;;15.90;99.90;;;;;;5047192;28;20095;-62
2022/08/10 02:39:32;;;;;;;8.18;6.22;;;15.90;99.90;;;;;;5048420;28;20037;-63
2022/08/10 02:42:03;;;;;;;9.77;6.25;;;15.90;99.90;;;;;;5048865;28;20524;-62
2022/08/10 02:44:40;;;;;;;9.82;6.97;;;15.90;99.90;;;;;;5047457;28;20120;-63
2022/08/10 02:47:17;;;;;;;9.35;6.90;;;15.90;99.90;;;;;;5048661;28;20403;-63
2022/08/10 02:49:58;;;;;;;8.15;6.68;;;15.90;99.90;;;;;;5047839;28;20099;-62
2022/08/10 02:52:30;;;;;;;8.70;6.97;;;15.80;99.90;;;;;;5042054;28;20392;-63
2022/08/10 02:55:04;;;;;;;9.27;6.57;;;15.80;99.90;;;;;;5042064;28;20048;-62
2022/08/10 02:57:37;;;;;;;9.55;7.15;;;15.80;99.90;;;;;;5048558;28;20041;-62
2022/08/10 03:00:06;;;;;;;10.57;7.72;;;15.80;99.90;;;;;;5039074;28;20056;-62
2022/08/10 03:02:35;;;;;;;10.35;6.97;;;15.70;99.90;;;;;;5042604;28;20057;-62
2022/08/10 03:05:10;;;;;;;8.60;7.05;;;15.70;99.90;;;;;;5039510;28;20063;-62
2022/08/10 03:07:42;;;;;;;8.65;6.75;;;15.70;99.90;;;;;;5045550;28;20053;-62
2022/08/10 03:10:11;;;;;;;9.85;6.93;;;15.70;99.90;;;;;;5048732;28;20048;-63
2022/08/10 03:12:37;;;;;;;10.43;7.70;;;15.70;99.90;;;;;;5043776;28;20057;-62
2022/08/10 03:15:04;;;;;;;8.20;6.47;;;15.70;99.90;;;;;;5046222;28;20415;-62
2022/08/10 03:17:32;;;;;;;9.10;7.28;;;15.70;99.90;;;;;;5037198;28;20049;-62
2022/08/10 03:19:59;;;;;;;9.25;7.13;;;15.60;99.90;;;;;;5034782;28;20037;-62
2022/08/10 03:22:25;;;;;;;9.65;7.28;;;15.60;99.90;;;;;;5037095;28;20041;-62
2022/08/10 03:24:53;;;;;;;10.25;7.82;;;15.60;99.90;;;;;;5039209;28;20183;-62
2022/08/10 03:27:20;;;;;;;9.05;7.53;;;15.60;99.90;;;;;;5042805;28;20038;-62
2022/08/10 03:29:46;;;;;;;11.25;7.78;;;15.60;99.90;;;;;;5040341;28;20114;-62
2022/08/10 03:32:12;;;;;;;10.20;7.50;;;15.60;99.90;;;;;;5034955;28;20045;-62
2022/08/10 03:34:39;;;;;;;10.30;7.90;;;15.60;99.90;;;;;;5044326;28;20056;-62
2022/08/10 03:37:05;;;;;;;10.05;7.15;;;15.60;99.90;;;;;;5032026;28;20037;-62
2022/08/10 03:39:30;;;;;;;9.57;7.55;;;15.50;99.90;;;;;;5041073;28;20404;-62
2022/08/10 03:41:59;;;;;;;11.05;7.57;;;15.60;99.90;;;;;;5038732;28;20114;-62
2022/08/10 03:44:30;;;;;;;11.30;8.32;;;15.50;99.90;;;;;;5034219;28;20456;-62
2022/08/10 03:46:59;;;;;;;9.80;7.60;;;15.50;99.90;;;;;;5040336;28;20574;-63
2022/08/10 03:49:28;;;;;;;10.40;8.23;;;15.40;99.90;;;;;;5028837;28;20045;-63
2022/08/10 03:51:56;;;;;;;9.75;7.72;;;15.50;99.90;;;;;;5031769;28;20116;-63
2022/08/10 03:54:21;;;;;;;10.60;8.15;;;15.40;99.90;;;;;;5037981;28;20045;-62
2022/08/10 03:56:47;;;;;;;10.50;8.23;;;15.40;99.90;;;;;;5038325;28;20047;-63
2022/08/10 03:59:15;;;;;;;10.95;8.00;;;15.40;99.90;;;;;;5043976;28;20049;-62
2022/08/10 04:01:44;;;;;;;10.63;7.97;;;15.40;99.90;;;;;;5048159;28;20090;-62
2022/08/10 04:04:11;;;;;;;11.35;8.00;;;15.40;99.90;;;;;;5042894;28;20049;-63
2022/08/10 04:06:37;;;;;;;9.68;7.85;;;15.40;99.90;;;;;;5039728;28;20045;-63
2022/08/10 04:09:03;;;;;;;10.57;8.02;;;15.40;99.90;;;;;;5044367;28;20381;-63
2022/08/10 04:11:29;;;;;;;10.57;8.07;;;15.40;99.90;;;;;;5046512;28;20049;-63
2022/08/10 04:13:54;;;;;;;9.95;7.45;;;15.40;99.90;;;;;;5045196;28;20045;-63
2022/08/10 04:16:20;;;;;;;10.13;7.75;;;15.30;99.90;;;;;;5042593;28;20453;-63
2022/08/10 04:18:45;;;;;;;9.32;7.53;;;15.40;99.90;;;;;;5034550;28;20049;-63
2022/08/10 04:21:19;;;;;;;10.50;8.27;;;15.40;99.90;;;;;;5024857;28;20136;-63
2022/08/10 04:23:48;;;;;;;9.17;7.63;;;15.40;99.90;;;;;;5040295;28;20040;-63
2022/08/10 04:26:14;;;;;;;10.75;8.10;;;15.30;99.90;;;;;;5042018;28;20707;-63
2022/08/10 04:28:41;;;;;;;9.57;7.30;;;15.40;99.90;;;;;;5043196;28;20044;-63
2022/08/10 04:31:08;;;;;;;11.50;8.35;;;15.40;99.90;;;;;;5042980;28;20048;-63
2022/08/10 04:33:38;;;;;;;10.85;8.43;;;15.30;99.90;;;;;;5043478;28;20033;-63
2022/08/10 04:36:05;;;;;;;10.20;8.05;;;15.30;99.90;;;;;;5048262;28;20106;-63
2022/08/10 04:38:32;;;;;;;11.07;8.38;;;15.30;99.90;;;;;;5039296;28;20144;-63
2022/08/10 04:40:59;;;;;;;10.38;8.88;;;15.40;99.90;;;;;;5044517;28;20530;-63
2022/08/10 04:43:25;;;;;;;12.00;8.60;;;15.40;99.90;;;;;;5043085;28;20506;-63
2022/08/10 04:45:50;;;;;;;11.68;8.48;;;15.40;99.90;;;;;;5047161;28;20132;-63
2022/08/10 04:48:21;;;;;;;10.32;7.82;;;15.40;99.90;;;;;;5042332;28;20151;-63
2022/08/10 04:50:47;;;;;;;11.35;8.98;;;15.40;99.90;;;;;;5044808;28;20120;-63
2022/08/10 04:53:12;;;;;;;13.77;9.20;;;15.50;99.90;;;;;;5043736;28;20143;-63
2022/08/10 04:55:38;;;;;;;12.43;8.95;;;15.50;99.90;;;;;;5047473;28;20102;-63
2022/08/10 04:58:03;;;;;;;12.35;9.52;;;15.50;99.90;;;;;;5042074;28;20373;-63
2022/08/10 05:00:29;;;;;;;12.75;9.65;;;15.50;99.90;;;;;;5040600;28;20121;-65
2022/08/10 05:02:55;;;;;;;11.13;9.52;;;15.50;99.90;;;;;;5041766;28;20060;-62
2022/08/10 05:05:20;;;;;;;12.90;9.45;;;15.50;99.90;;;;;;5041780;28;20363;-63
2022/08/10 05:07:46;;;;;;;11.75;8.93;;;15.60;99.90;;;;;;5037269;28;20280;-62
2022/08/10 05:10:12;;;;;;;11.65;8.80;;;15.60;99.90;;;;;;5049831;28;20069;-62
2022/08/10 05:12:38;;;;;;;12.68;9.35;;;15.70;99.90;;;;;;5045563;28;20041;-62
2022/08/10 05:15:11;;;;;;;12.82;9.05;;;15.80;99.90;;;;;;5048728;28;20485;-62
2022/08/10 05:17:37;;;;;;;12.15;9.38;;;15.80;99.90;;;;;;5046157;28;20189;-62
2022/08/10 05:20:05;;;;;;;13.18;8.88;;;15.90;99.90;;;;;;5046452;28;20040;-62
2022/08/10 05:22:31;;;;;;;15.98;10.15;;;16.00;99.90;;;;;;5036194;28;20048;-62
2022/08/10 05:24:57;;;;;;;15.40;9.75;;;16.10;99.90;;;;;;5028126;28;20079;-62
2022/08/10 05:27:22;;;;;;;11.32;8.77;;;16.10;99.90;;;;;;5046846;28;20064;-62
2022/08/10 05:29:48;;;;;;;13.20;8.77;;;16.30;99.90;;;;;;5049715;28;20041;-62
2022/08/10 05:32:14;;;;;;;12.80;9.07;;;16.40;99.90;;;;;;5043921;28;20038;-62
2022/08/10 05:34:39;;;;;;;13.25;9.43;;;16.40;99.90;;;;;;5044579;28;20036;-62
2022/08/10 05:37:06;;;;;;;13.48;9.60;;;16.50;99.90;;;;;;5043706;28;20059;-62
2022/08/10 05:39:33;;;;;;;15.15;9.93;;;16.60;99.90;;;;;;5045112;28;20099;-63
2022/08/10 05:42:00;;;;;;;12.23;9.45;;;16.60;99.90;;;;;;5039125;28;20424;-63
2022/08/10 05:44:26;;;;;;;11.18;8.63;;;16.60;99.90;;;;;;5047110;28;20055;-63
2022/08/10 05:46:52;;;;;;;14.88;9.25;;;16.80;99.90;;;;;;5046884;28;20116;-63
2022/08/10 05:49:17;;;;;;;11.13;8.90;;;16.80;99.90;;;;;;5047203;28;20037;-63
2022/08/10 05:51:43;;;;;;;13.93;9.05;;;16.90;99.90;;;;;;5038390;28;20052;-63
2022/08/10 05:54:15;;;;;;;15.20;9.40;;;17.00;99.90;;;;;;5036851;28;20107;-64
2022/08/10 05:56:47;;;;;;;13.23;8.50;;;17.00;99.90;;;;;;5030168;28;20046;-63
2022/08/10 05:59:14;;;;;;;12.95;9.05;;;17.10;99.90;;;;;;5030279;28;20045;-64
2022/08/10 06:01:42;;;;;;;11.40;8.80;;;17.20;99.90;;;;;;5048119;28;20349;-64
2022/08/10 06:04:18;;;;;;;12.18;8.57;;;17.30;99.90;;;;;;5039662;28;20088;-64
2022/08/10 06:06:46;;;;;;;10.52;8.40;;;17.50;99.90;;;;;;5049375;28;20499;-64
2022/08/10 06:09:15;;;;;;;12.00;8.50;;;17.60;99.90;;;;;;5048719;28;20060;-64
2022/08/10 06:11:44;;;;;;;11.90;8.48;;;17.60;99.90;;;;;;5051011;28;20119;-64
2022/08/10 06:16:59;;;;;;;12.45;8.30;;;17.80;99.90;;;;;;5046624;28;20053;-64
2022/08/10 06:19:26;;;;;;;11.45;8.05;;;17.90;99.90;;;;;;5040423;28;20404;-64
2022/08/10 06:21:52;;;;;;;11.43;8.52;;;17.90;99.90;;;;;;5049735;28;20041;-64
2022/08/10 06:24:22;;;;;;;12.40;8.50;;;18.00;99.90;;;;;;5050262;28;20041;-63
2022/08/10 06:26:47;;;;;;;12.02;8.20;;;18.10;99.90;;;;;;5050753;28;20124;-64
2022/08/10 06:29:14;;;;;;;10.50;7.70;;;18.10;99.90;;;;;;5049939;28;20176;-63
2022/08/10 06:31:45;;;;;;;9.52;7.80;;;18.20;99.90;;;;;;5044806;28;20351;-63
2022/08/10 06:34:13;;;;;;;11.25;7.80;;;18.40;99.90;;;;;;5036587;28;20471;-63
2022/08/10 06:36:42;;;;;;;11.15;7.57;;;18.40;99.90;;;;;;5049540;28;20573;-64
2022/08/10 06:39:08;;;;;;;9.98;6.68;;;18.50;99.90;;;;;;5049365;28;20048;-64
2022/08/10 06:41:46;;;;;;;12.10;7.95;;;18.50;99.90;;;;;;5050610;28;20187;-63
2022/08/10 06:44:21;;;;;;;12.07;7.10;;;18.50;99.90;;;;;;5050039;28;20128;-64
2022/08/10 06:46:49;;;;;;;10.50;7.70;;;18.70;99.90;;;;;;5050388;28;20041;-63
2022/08/10 06:49:20;;;;;;;9.65;7.07;;;18.70;99.90;;;;;;5047696;28;20041;-64
2022/08/10 06:51:48;;;;;;;9.90;6.80;;;18.80;99.90;;;;;;5049794;28;20052;-63
2022/08/10 06:54:20;;;;;;;9.43;6.65;;;18.80;99.90;;;;;;5043620;28;20128;-64
2022/08/10 06:56:47;;;;;;;9.10;6.60;;;18.90;99.90;;;;;;5043101;28;20080;-63
2022/08/10 06:59:24;;;;;;;8.50;6.82;;;19.00;99.90;;;;;;5036494;28;20068;-63
2022/08/10 07:02:05;;;;;;;10.40;6.80;;;19.20;99.90;;;;;;5035451;28;20429;-64
2022/08/10 07:04:47;;;;;;;10.68;6.72;;;19.30;99.90;;;;;;5048384;28;20087;-62
2022/08/10 07:07:24;;;;;;;9.50;6.22;;;19.30;99.90;;;;;;5049861;28;20057;-63
2022/08/10 07:09:52;;;;;;;8.63;6.30;;;19.40;99.90;;;;;;5038830;28;20037;-64
2022/08/10 07:12:20;;;;;;;10.00;6.20;;;19.50;99.90;;;;;;5049376;28;20037;-63
2022/08/10 07:14:50;;;;;;;7.82;5.68;;;19.50;99.90;;;;;;5050132;28;20045;-64
2022/08/10 07:17:18;;;;;;;10.73;6.57;;;19.60;99.90;;;;;;5048634;28;20132;-64
2022/08/10 07:19:58;;;;;;;9.82;6.03;;;19.60;99.90;;;;;;5048822;28;20045;-64
2022/08/10 07:22:30;;;;;;;8.48;6.22;;;19.70;99.90;;;;;;5048951;28;20392;-63
2022/08/10 07:24:58;;;;;;;8.77;6.28;;;19.80;99.90;;;;;;5047147;28;20041;-64
2022/08/10 07:27:24;;;;;;;7.95;6.20;;;19.80;99.90;;;;;;5049846;28;20048;-63
2022/08/10 07:29:52;;;;;;;10.38;6.03;;;20.00;99.90;;;;;;5046972;28;20041;-65
2022/08/10 07:32:18;;;;;;;10.30;6.05;;;20.10;99.90;;;;;;5048112;28;20433;-65
2022/08/10 07:34:47;;;;;;;8.63;5.43;;;20.20;99.90;;;;;;5048527;28;20044;-65
2022/08/10 07:37:14;;;;;;;8.77;6.03;;;20.30;99.90;;;;;;5048251;28;20460;-65
2022/08/10 07:39:45;;;;;;;9.13;5.80;;;20.40;99.90;;;;;;5048708;28;20231;-65
2022/08/10 07:42:13;;;;;;;8.00;6.35;;;20.50;99.90;;;;;;5049151;28;20132;-65
2022/08/10 07:44:42;;;;;;;8.57;6.38;;;20.60;99.90;;;;;;5048447;28;20513;-65
2022/08/10 07:47:17;;;;;;;7.15;5.28;;;20.70;99.90;;;;;;5048054;28;20379;-65
2022/08/10 07:49:45;;;;;;;7.70;5.47;;;20.80;99.90;;;;;;5048226;28;20044;-64
2022/08/10 07:52:11;;;;;;;7.60;5.05;;;20.80;99.90;;;;;;5047958;28;20044;-65
2022/08/10 07:54:42;;;;;;;11.05;5.45;;;20.90;99.90;;;;;;5048407;28;20044;-65
2022/08/10 07:57:22;;;;;;;9.13;5.20;;;20.90;99.90;;;;;;5048204;28;20108;-65
2022/08/10 07:59:54;;;;;;;8.15;5.07;;;21.00;99.90;;;;;;5033280;28;20449;-65
2022/08/10 08:02:28;;;;;;;8.43;5.43;;;21.10;99.90;;;;;;5047627;28;20041;-65
2022/08/10 08:04:59;;;;;;;10.30;5.57;;;21.10;99.90;;;;;;5047288;28;20124;-65
2022/08/10 08:07:26;;;;;;;7.88;5.07;;;21.20;99.90;;;;;;5047793;28;20045;-65
2022/08/10 08:09:54;;;;;;;7.47;4.90;;;21.30;99.90;;;;;;5037587;28;20554;-65
2022/08/10 08:12:20;;;;;;;7.53;4.80;;;21.40;99.90;;;;;;5048960;28;20040;-65
2022/08/10 08:14:47;;;;;;;6.72;4.88;;;21.50;99.90;;;;;;5046384;28;20555;-64
2022/08/10 08:17:15;;;;;;;8.52;5.05;;;21.70;99.90;;;;;;5048183;28;20077;-65
2022/08/10 08:19:45;;;;;;;6.50;4.55;;;21.80;99.90;;;;;;5047193;28;20087;-65
2022/08/10 08:22:11;;;;;;;7.05;4.70;;;21.90;99.90;;;;;;5047102;28;20037;-65
2022/08/10 08:24:40;;;;;;;6.78;4.30;;;21.90;99.90;;;;;;5047360;28;20120;-65
2022/08/10 08:27:06;;;;;;;8.07;4.55;;;22.00;99.90;;;;;;5048162;28;20041;-65
2022/08/10 08:29:37;;;;;;;7.30;4.57;;;22.10;99.90;;;;;;5048188;28;20059;-65
2022/08/10 08:32:05;;;;;;;8.18;4.32;;;22.20;99.90;;;;;;5047304;28;20117;-65
2022/08/10 08:34:37;;;;;;;7.57;4.45;;;22.30;99.90;;;;;;5046652;28;20549;-65
2022/08/10 08:37:04;;;;;;;7.93;4.13;;;22.40;99.90;;;;;;5047462;28;20147;-65
2022/08/10 08:39:34;;;;;;;6.35;3.85;;;22.50;99.90;;;;;;5047049;28;20105;-65
2022/08/10 08:42:13;;;;;;;6.75;3.35;;;22.60;99.90;;;;;;5047436;28;20357;-65
2022/08/10 08:45:01;;;;;;;7.05;3.70;;;22.60;99.90;;;;;;5047478;28;20055;-65
2022/08/10 08:47:48;;;;;;;5.10;3.10;;;22.70;99.90;;;;;;5048396;28;20131;-65
2022/08/10 08:50:27;;;;;;;5.45;3.30;;;22.90;99.90;;;;;;5046475;28;20122;-65
2022/08/10 08:53:20;;;;;;;6.85;3.50;;;23.00;99.90;;;;;;5047992;28;20538;-65
2022/08/10 08:55:59;;;;;;;6.68;3.45;;;23.20;99.90;;;;;;5047291;28;20171;-65
2022/08/10 08:58:27;;;;;;;5.07;3.65;;;23.30;99.90;;;;;;5038846;28;20045;-65
2022/08/10 09:01:08;;;;;;;5.05;3.35;;;23.30;99.90;;;;;;5039849;28;20037;-65
2022/08/10 09:03:40;;;;;;;8.23;3.28;;;23.50;99.90;;;;;;5047306;28;20037;-65
2022/08/10 09:06:48;;;;;;;5.22;3.42;;;23.50;99.90;;;;;;5046717;28;20128;-65
2022/08/10 09:09:25;;;;;;;5.47;3.03;;;23.60;99.90;;;;;;5040947;28;20060;-65
2022/08/10 09:12:25;;;;;;;7.43;2.88;;;23.70;99.90;;;;;;5047557;28;20384;-65
2022/08/10 09:15:26;;;;;;;6.28;2.80;;;23.80;99.90;;;;;;5046009;28;20095;-65
2022/08/10 09:18:19;;;;;;;6.18;2.78;;;23.90;99.90;;;;;;5046433;28;20049;-65
2022/08/10 09:20:59;;;;;;;5.50;2.33;;;23.90;99.90;;;;;;5034748;28;20083;-65
2022/08/10 09:23:34;;;;;;;5.78;2.40;;;24.10;99.90;;;;;;5046598;28;20043;-65
2022/08/10 09:26:18;;;;;;;6.70;2.58;;;24.10;99.90;;;;;;5046375;28;20451;-65
2022/08/10 09:28:44;;;;;;;4.45;2.47;;;24.20;99.30;;;;;;5052857;28;20098;-65
2022/08/10 09:31:11;;;;;;;4.93;2.20;;;24.30;99.40;;;;;;5050607;28;20052;-65
2022/08/10 09:33:39;;;;;;;8.05;2.40;;;24.30;99.10;;;;;;5051170;28;20044;-65
2022/08/10 09:36:16;;;;;;;4.35;2.20;;;24.40;98.80;;;;;;5049867;28;20052;-65
2022/08/10 09:39:15;;;;;;;4.88;2.30;;;24.50;98.80;;;;;;5049857;28;20097;-65
2022/08/10 09:42:01;;;;;;;5.10;1.88;;;24.60;98.40;;;;;;5051793;28;20048;-65
2022/08/10 09:44:45;;;;;;;4.55;1.85;;;24.70;97.70;;;;;;5051002;28;20165;-65
2022/08/10 09:47:48;;;;;;;4.77;2.10;;;24.80;97.50;;;;;;5038596;28;20129;-65
2022/08/10 09:50:23;;;;;;;5.35;2.08;;;24.90;96.70;;;;;;5039389;28;20288;-65
2022/08/10 09:53:05;;;;;;;5.72;2.22;;;25.00;97.00;;;;;;5045471;28;20125;-65
2022/08/10 09:55:51;;;;;;;5.15;1.50;;;25.10;96.40;;;;;;5045684;28;20176;-65
2022/08/10 09:58:39;;;;;;;4.35;1.70;;;25.20;95.90;;;;;;5044404;28;20437;-65
2022/08/10 10:01:19;;;;;;;3.97;1.67;;;25.30;95.60;;;;;;5043919;28;20472;-65
2022/08/10 10:04:03;;;;;;;6.93;1.73;;;25.40;95.10;;;;;;5050534;28;20091;-65
2022/08/10 10:06:38;;;;;;;3.80;1.70;;;25.40;93.60;;;;;;5044985;28;20094;-65
2022/08/10 10:09:14;;;;;;;4.43;1.60;;;25.50;93.80;;;;;;5029650;28;20509;-65
2022/08/10 10:11:55;;;;;;;3.67;1.60;;;25.50;92.90;;;;;;5031060;28;20369;-65
2022/08/10 10:18:00;;;;;;;3.03;1.30;;;25.70;91.20;;;;;;5031892;28;20118;-65
2022/08/10 10:20:47;;;;;;;4.70;1.38;;;25.90;91.70;;;;;;5043592;28;20045;-65
2022/08/10 10:23:17;;;;;;;3.90;1.30;;;26.10;92.10;;;;;;5030247;28;20407;-65
2022/08/10 10:26:12;;;;;;;3.30;1.30;;;26.20;91.50;;;;;;5031404;28;20048;-65
2022/08/10 10:29:06;;;;;;;4.82;1.33;;;26.20;90.00;;;;;;5030380;28;20124;-65
2022/08/10 10:31:43;;;;;;;3.88;1.35;;;26.30;88.70;;;;;;5031143;28;20445;-65
2022/08/10 10:34:15;;;;;;;3.70;1.30;;;26.30;87.50;;;;;;5028225;28;20520;-65
2022/08/10 10:36:43;;;;;;;5.05;1.20;;;26.40;89.40;;;;;;5030367;28;20049;-65
2022/08/10 10:39:12;;;;;;;4.20;1.50;;;26.50;89.20;;;;;;5029437;28;20065;-65
2022/08/10 10:41:48;;;;;;;2.63;1.27;;;26.60;88.50;;;;;;5030292;28;20558;-65
2022/08/10 10:44:35;;;;;;;2.67;1.33;;;26.60;88.70;;;;;;5030378;28;20346;-65
2022/08/10 10:47:33;;;;;;;7.18;1.63;;;26.70;86.80;;;;;;5036681;28;20103;-65
2022/08/10 10:50:18;;;;;;;4.78;1.55;;;26.70;86.20;;;;;;5000243;28;20065;-65
2022/08/10 10:53:11;;;;;;;3.72;1.20;;;26.80;86.60;;;;;;5038805;28;20053;-65
2022/08/10 10:55:48;;;;;;;2.20;1.20;;;26.90;85.40;;;;;;5029772;28;20095;-65
2022/08/10 10:58:28;;;;;;;4.30;1.30;;;26.90;84.00;;;;;;5030287;28;20041;-65
2022/08/10 11:01:15;;;;;;;4.80;1.45;;;26.90;84.50;;;;;;5042291;28;20053;-65
2022/08/10 11:04:17;;;;;;;4.50;1.80;;;27.00;83.10;;;;;;5048729;28;20476;-65
2022/08/10 11:07:18;;;;;;;4.18;1.35;;;27.00;82.50;;;;;;5047936;28;20323;-65
2022/08/10 11:10:08;;;;;;;4.22;1.27;;;27.00;81.10;;;;;;5033094;28;20453;-65
2022/08/10 11:12:48;;;;;;;3.47;1.20;;;27.10;82.30;;;;;;5029261;28;20037;-65
2022/08/10 11:15:30;;;;;;;4.20;1.40;;;27.20;81.60;;;;;;5033795;28;20159;-65
2022/08/10 11:18:04;;;;;;;3.58;1.50;;;27.30;80.90;;;;;;5036441;28;20115;-65
2022/08/10 11:20:35;;;;;;;1.60;1.02;;;27.40;79.50;;;;;;5027900;28;20463;-65
2022/08/10 11:23:25;;;;;;;3.08;1.20;;;27.40;77.70;;;;;;5029168;28;20084;-65
2022/08/10 11:26:01;;;;;;;2.90;1.40;;;27.30;74.70;;;;;;5029754;28;20162;-65
2022/08/10 11:28:26;;;;;;;4.55;1.30;;;27.40;75.20;;;;;;5033427;28;20040;-65
2022/08/10 11:31:20;;;;;;;3.05;1.30;;;27.40;74.30;;;;;;5028867;28;20053;-65
2022/08/10 11:33:45;;;;;;;2.65;1.33;;;27.40;75.30;;;;;;5028222;28;20100;-65
2022/08/10 11:36:30;;;;;;;3.17;1.00;;;27.40;73.90;;;;;;5028239;28;20094;-65
2022/08/10 11:38:58;;;;;;;2.72;1.10;;;27.40;74.60;;;;;;5028263;28;20398;-65
2022/08/10 11:41:49;;;;;;;3.42;1.30;;;27.40;73.90;;;;;;5029586;28;20441;-65
2022/08/10 11:44:35;;;;;;;4.28;1.45;;;27.50;73.20;;;;;;5029863;28;20095;-65
2022/08/10 11:47:18;;;;;;;2.42;1.00;;;27.50;72.80;;;;;;5029330;28;20068;-65
2022/08/10 11:49:56;;;;;;;3.33;1.05;;;27.60;73.30;;;;;;5032017;28;20045;-65
2022/08/10 11:52:46;;;;;;;1.67;1.02;;;27.70;72.40;;;;;;5028237;28;20442;-65
2022/08/10 11:55:16;;;;;;;3.70;1.10;;;27.80;71.90;;;;;;5029113;28;20099;-65
2022/08/10 11:57:43;;;;;;;3.80;1.10;;;27.80;69.40;;;;;;5029105;28;20152;-65
2022/08/10 12:00:10;;;;;;;4.95;1.30;;;27.80;70.90;;;;;;5033182;28;20050;-65
2022/08/10 12:02:47;;;;;;;4.32;1.35;;;27.90;71.20;;;;;;5049110;28;20072;-65
2022/08/10 12:05:20;;;;;;;2.83;1.20;;;27.90;69.40;;;;;;5040375;28;20057;-65
2022/08/10 12:07:49;;;;;;;3.80;1.30;;;27.90;69.70;;;;;;5048566;28;20052;-65
2022/08/10 12:10:17;;;;;;;3.20;1.13;;;28.00;70.10;;;;;;5048976;28;20045;-65
2022/08/10 12:13:01;;;;;;;2.58;1.00;;;28.00;70.10;;;;;;5048914;28;20040;-65
2022/08/10 12:15:53;;;;;;;2.80;1.10;;;28.10;68.50;;;;;;5049025;28;20045;-65
2022/08/10 12:18:46;;;;;;;3.97;1.20;;;28.20;68.30;;;;;;5048159;28;20152;-65
2022/08/10 12:21:20;;;;;;;4.07;1.20;;;28.30;68.40;;;;;;5049571;28;20081;-66
2022/08/10 12:23:54;;;;;;;2.50;1.10;;;28.30;69.10;;;;;;5044763;28;20041;-65
2022/08/10 12:26:36;;;;;;;2.80;1.00;;;28.50;67.60;;;;;;5056158;28;20303;-65
2022/08/10 12:29:07;;;;;;;3.85;1.20;;;28.40;67.20;;;;;;5047028;28;20041;-65
2022/08/10 12:31:41;;;;;;;2.05;1.20;;;28.50;67.00;;;;;;5046985;28;20049;-65
2022/08/10 12:34:23;;;;;;;3.58;1.08;;;28.60;66.30;;;;;;5046132;28;20091;-65
2022/08/10 12:37:10;;;;;;;3.05;1.10;;;28.60;66.20;;;;;;5047825;28;20045;-65
2022/08/10 12:40:07;;;;;;;3.17;1.23;;;28.60;67.10;;;;;;5045598;28;20048;-65
2022/08/10 12:42:47;;;;;;;4.50;1.58;;;28.70;65.70;;;;;;5048181;28;20048;-65
2022/08/10 12:45:39;;;;;;;2.88;1.40;;;28.70;67.00;;;;;;5048197;28;20082;-65
2022/08/10 12:48:27;;;;;;;2.25;1.20;;;28.70;66.50;;;;;;5046783;28;20508;-65
2022/08/10 12:51:00;;;;;;;3.70;1.00;;;28.80;66.00;;;;;;5046792;28;20045;-65
2022/08/10 12:53:47;;;;;;;4.32;1.30;;;28.80;65.10;;;;;;5047040;28;20033;-65
2022/08/10 12:56:30;;;;;;;2.85;1.13;;;28.80;65.30;;;;;;5047593;28;20037;-65
2022/08/10 12:58:57;;;;;;;2.00;1.00;;;28.80;65.10;;;;;;5036588;28;20045;-65
2022/08/10 13:01:27;;;;;;;4.47;1.10;;;28.80;64.30;;;;;;5044416;28;20045;-65
2022/08/10 13:03:58;;;;;;;4.13;1.30;;;28.80;64.80;;;;;;5045859;28;20045;-65
2022/08/10 13:06:25;;;;;;;4.65;1.50;;;28.80;65.30;;;;;;5047129;28;20454;-65
2022/08/10 13:09:07;;;;;;;3.75;1.15;;;28.90;64.90;;;;;;5047213;28;20392;-65
2022/08/10 13:11:36;;;;;;;2.33;1.00;;;28.90;65.30;;;;;;5048222;28;20503;-65
2022/08/10 13:14:12;;;;;;;3.67;1.10;;;29.00;65.40;;;;;;5042522;28;20041;-64
2022/08/10 13:16:41;;;;;;;4.43;1.10;;;29.00;63.10;;;;;;5047788;28;20135;-64
2022/08/10 13:19:09;;;;;;;2.47;1.20;;;29.00;63.70;;;;;;5046195;28;20056;-64
2022/08/10 13:21:37;;;;;;;3.05;1.13;;;29.00;64.10;;;;;;5047244;28;20103;-64